To NAV CANADA Home Page Login to a new session Search on AWWS site Disclaimer Vers la page française équivalente Tips FAQ What's new on the site To the Forecasts and Observations / NOTAM section To "File a Flight Plan" website Publications and other links Update of the User's profile FIC Telephone Numbers My Weather Data Folder Route Weather Data Regional Weather Data Local Weather Data To the Forecasts and Observations / NOTAM section
Request Generated 03/21/2019 at 01:53:35 UTC . Weather information available at that time is displayed.

METAR/TAF

GANDER/GANDER INTL/NL    

METAR CYQX 210100Z 23018KT 20SM FEW180 FEW250 M06/M11 A3006 RMK AC1CI1 WND ESTD SLP192=
METAR CYQX 210000Z 24013G25KT 20SM FEW180 FEW250 M06/M11 A3005 RMK AC1CI1 SLP189=
METAR CYQX 202300Z 23014G20KT 20SM FEW041 SCT250 M05/M11 A3005 RMK SC1CI2 SLP186=

TAF CYQX 202339Z 2100/2124 25015G25KT P6SM FEW030
BECMG 2101/2103 24012KT
FM210600 24012KT P6SM SCT015 BKN040
FM212000 21015KT P6SM BKN050
RMK NXT FCST BY 210600Z=
Your time UTC time
Weather data provided by Environment Canada and NAV CANADA